sensor_id;sensor_type;location;lat;lon;timestamp;pressure;altitude;pressure_sealevel;temperature;humidity
34177;BME280;20450;49.074;9.158;2023-04-01T00:00:37;98352.13;;;10.55;73.02
34177;BME280;20450;49.074;9.158;2023-04-01T00:03:04;98355.38;;;10.73;71.86
34177;BME280;20450;49.074;9.158;2023-04-01T00:05:31;98362.41;;;10.74;71.04
34177;BME280;20450;49.074;9.158;2023-04-01T00:07:58;98364.31;;;10.74;70.61
34177;BME280;20450;49.074;9.158;2023-04-01T00:10:25;98361.13;;;10.77;71.33
34177;BME280;20450;49.074;9.158;2023-04-01T00:12:52;98366.41;;;10.88;69.75
34177;BME280;20450;49.074;9.158;2023-04-01T00:15:23;98355.13;;;10.75;69.39
34177;BME280;20450;49.074;9.158;2023-04-01T00:17:50;98358.41;;;10.93;68.75
34177;BME280;20450;49.074;9.158;2023-04-01T00:20:17;98357.75;;;11.24;69.05
34177;BME280;20450;49.074;9.158;2023-04-01T00:22:44;98357.00;;;11.29;67.43
34177;BME280;20450;49.074;9.158;2023-04-01T00:25:11;98359.38;;;11.25;67.46
34177;BME280;20450;49.074;9.158;2023-04-01T00:27:38;98369.06;;;11.21;66.73
34177;BME280;20450;49.074;9.158;2023-04-01T00:30:06;98358.50;;;11.41;68.30
34177;BME280;20450;49.074;9.158;2023-04-01T00:32:35;98364.69;;;11.58;66.82
34177;BME280;20450;49.074;9.158;2023-04-01T00:35:05;98366.56;;;11.58;65.29
34177;BME280;20450;49.074;9.158;2023-04-01T00:37:34;98364.56;;;11.48;66.98
34177;BME280;20450;49.074;9.158;2023-04-01T00:40:03;98367.31;;;11.53;66.39
34177;BME280;20450;49.074;9.158;2023-04-01T00:42:32;98367.38;;;11.58;68.40
34177;BME280;20450;49.074;9.158;2023-04-01T00:45:27;98361.59;;;11.71;65.98
34177;BME280;20450;49.074;9.158;2023-04-01T00:48:04;98357.13;;;11.60;65.49
34177;BME280;20450;49.074;9.158;2023-04-01T00:50:34;98361.84;;;11.92;64.96
34177;BME280;20450;49.074;9.158;2023-04-01T00:53:05;98355.03;;;11.89;64.38
34177;BME280;20450;49.074;9.158;2023-04-01T00:55:35;98359.72;;;11.72;65.38
34177;BME280;20450;49.074;9.158;2023-04-01T00:58:09;98362.38;;;11.93;67.00
34177;BME280;20450;49.074;9.158;2023-04-01T01:00:42;98356.19;;;11.71;64.95
34177;BME280;20450;49.074;9.158;2023-04-01T01:03:11;98360.50;;;11.67;66.19
34177;BME280;20450;49.074;9.158;2023-04-01T01:06:06;98354.22;;;11.62;65.45
34177;BME280;20450;49.074;9.158;2023-04-01T01:08:48;98359.16;;;11.92;66.20
34177;BME280;20450;49.074;9.158;2023-04-01T01:11:35;98362.66;;;11.92;65.96
34177;BME280;20450;49.074;9.158;2023-04-01T01:14:22;98372.41;;;12.20;63.86
34177;BME280;20450;49.074;9.158;2023-04-01T01:17:07;98357.72;;;12.11;64.27
34177;BME280;20450;49.074;9.158;2023-04-01T01:20:14;98362.38;;;11.93;63.37
34177;BME280;20450;49.074;9.158;2023-04-01T01:23:38;98362.72;;;11.97;66.08
34177;BME280;20450;49.074;9.158;2023-04-01T01:26:39;98361.78;;;11.86;63.67
34177;BME280;20450;49.074;9.158;2023-04-01T01:32:42;98360.44;;;11.89;63.70
34177;BME280;20450;49.074;9.158;2023-04-01T01:35:34;98360.34;;;12.06;64.91
34177;BME280;20450;49.074;9.158;2023-04-01T01:38:15;98361.63;;;11.98;64.15
34177;BME280;20450;49.074;9.158;2023-04-01T01:40:55;98355.59;;;11.91;63.75
34177;BME280;20450;49.074;9.158;2023-04-01T01:43:26;98359.41;;;11.68;64.21
34177;BME280;20450;49.074;9.158;2023-04-01T01:46:02;98351.72;;;11.82;64.81
34177;BME280;20450;49.074;9.158;2023-04-01T01:48:34;98349.34;;;11.85;64.37
34177;BME280;20450;49.074;9.158;2023-04-01T01:51:05;98361.69;;;11.76;64.88
34177;BME280;20450;49.074;9.158;2023-04-01T01:53:34;98358.41;;;12.01;64.13
34177;BME280;20450;49.074;9.158;2023-04-01T01:56:02;98346.91;;;11.89;63.12
34177;BME280;20450;49.074;9.158;2023-04-01T01:58:36;98358.66;;;12.00;64.85
34177;BME280;20450;49.074;9.158;2023-04-01T02:01:14;98348.75;;;12.05;63.17
34177;BME280;20450;49.074;9.158;2023-04-01T02:03:46;98342.31;;;12.11;62.66
34177;BME280;20450;49.074;9.158;2023-04-01T02:06:18;98356.38;;;11.86;63.76
34177;BME280;20450;49.074;9.158;2023-04-01T02:08:50;98349.28;;;11.80;62.55
34177;BME280;20450;49.074;9.158;2023-04-01T02:11:26;98340.44;;;11.63;65.32
34177;BME280;20450;49.074;9.158;2023-04-01T02:14:02;98338.47;;;11.59;64.71
34177;BME280;20450;49.074;9.158;2023-04-01T02:16:36;98345.22;;;11.83;63.14
34177;BME280;20450;49.074;9.158;2023-04-01T02:19:38;98341.97;;;12.08;64.81
34177;BME280;20450;49.074;9.158;2023-04-01T02:22:39;98344.44;;;11.82;62.64
34177;BME280;20450;49.074;9.158;2023-04-01T02:25:13;98344.44;;;11.82;62.12
34177;BME280;20450;49.074;9.158;2023-04-01T02:27:43;98337.00;;;11.73;61.93
34177;BME280;20450;49.074;9.158;2023-04-01T02:30:13;98327.88;;;11.79;63.55
34177;BME280;20450;49.074;9.158;2023-04-01T02:32:49;98330.66;;;12.11;61.78
34177;BME280;20450;49.074;9.158;2023-04-01T02:35:18;98340.81;;;11.99;60.71
34177;BME280;20450;49.074;9.158;2023-04-01T02:37:49;98331.84;;;11.93;62.68
34177;BME280;20450;49.074;9.158;2023-04-01T02:40:17;98339.03;;;11.82;61.95
34177;BME280;20450;49.074;9.158;2023-04-01T02:42:44;98349.72;;;11.51;65.15
34177;BME280;20450;49.074;9.158;2023-04-01T02:45:13;98332.22;;;11.58;65.32
34177;BME280;20450;49.074;9.158;2023-04-01T02:47:41;98339.34;;;11.64;64.69
34177;BME280;20450;49.074;9.158;2023-04-01T02:50:09;98342.59;;;11.88;64.84
34177;BME280;20450;49.074;9.158;2023-04-01T02:52:37;98356.56;;;11.80;62.45
34177;BME280;20450;49.074;9.158;2023-04-01T02:55:06;98339.06;;;11.44;64.31
34177;BME280;20450;49.074;9.158;2023-04-01T02:57:34;98339.19;;;11.33;64.02
34177;BME280;20450;49.074;9.158;2023-04-01T03:00:02;98342.53;;;11.61;65.42
34177;BME280;20450;49.074;9.158;2023-04-01T03:02:30;98337.38;;;11.60;63.46
34177;BME280;20450;49.074;9.158;2023-04-01T03:04:57;98331.25;;;11.64;63.12
34177;BME280;20450;49.074;9.158;2023-04-01T03:07:24;98329.25;;;11.60;63.21
34177;BME280;20450;49.074;9.158;2023-04-01T03:09:51;98329.72;;;11.30;62.95
34177;BME280;20450;49.074;9.158;2023-04-01T03:12:20;98328.03;;;11.24;65.20
34177;BME280;20450;49.074;9.158;2023-04-01T03:14:50;98336.31;;;11.18;64.40
34177;BME280;20450;49.074;9.158;2023-04-01T03:17:17;98327.94;;;11.19;64.58
34177;BME280;20450;49.074;9.158;2023-04-01T03:19:45;98334.53;;;11.07;65.56
34177;BME280;20450;49.074;9.158;2023-04-01T03:22:12;98335.28;;;11.02;65.41
34177;BME280;20450;49.074;9.158;2023-04-01T03:24:40;98340.25;;;11.10;65.21
34177;BME280;20450;49.074;9.158;2023-04-01T03:27:07;98334.34;;;11.13;64.33
34177;BME280;20450;49.074;9.158;2023-04-01T03:29:35;98330.06;;;10.96;65.10
34177;BME280;20450;49.074;9.158;2023-04-01T03:32:03;98334.84;;;11.10;64.05
34177;BME280;20450;49.074;9.158;2023-04-01T03:34:30;98328.56;;;11.05;65.08
34177;BME280;20450;49.074;9.158;2023-04-01T03:36:58;98330.69;;;11.03;65.28
34177;BME280;20450;49.074;9.158;2023-04-01T03:39:25;98333.50;;;10.91;64.78
34177;BME280;20450;49.074;9.158;2023-04-01T03:41:54;98339.31;;;10.83;66.17
34177;BME280;20450;49.074;9.158;2023-04-01T03:44:21;98338.91;;;10.91;64.78
34177;BME280;20450;49.074;9.158;2023-04-01T03:46:55;98338.47;;;11.16;65.89
34177;BME280;20450;49.074;9.158;2023-04-01T03:49:22;98340.75;;;11.07;65.28
34177;BME280;20450;49.074;9.158;2023-04-01T03:51:49;98346.59;;;10.99;65.77
34177;BME280;20450;49.074;9.158;2023-04-01T03:54:16;98347.13;;;10.80;65.89
34177;BME280;20450;49.074;9.158;2023-04-01T03:56:46;98344.28;;;10.70;67.35
34177;BME280;20450;49.074;9.158;2023-04-01T03:59:13;98351.59;;;10.74;67.00
34177;BME280;20450;49.074;9.158;2023-04-01T04:01:41;98353.41;;;10.85;66.42
34177;BME280;20450;49.074;9.158;2023-04-01T04:04:12;98352.13;;;10.71;65.96
34177;BME280;20450;49.074;9.158;2023-04-01T04:06:39;98354.66;;;10.61;66.83
34177;BME280;20450;49.074;9.158;2023-04-01T04:09:06;98352.78;;;10.45;67.50
34177;BME280;20450;49.074;9.158;2023-04-01T04:11:33;98338.53;;;10.33;68.39
34177;BME280;20450;49.074;9.158;2023-04-01T04:14:01;98345.00;;;10.32;68.06
34177;BME280;20450;49.074;9.158;2023-04-01T04:16:29;98352.94;;;10.22;68.52
34177;BME280;20450;49.074;9.158;2023-04-01T04:19:00;98346.84;;;10.15;69.16
34177;BME280;20450;49.074;9.158;2023-04-01T04:21:28;98356.84;;;10.15;69.46
34177;BME280;20450;49.074;9.158;2023-04-01T04:23:58;98357.59;;;9.98;69.81
34177;BME280;20450;49.074;9.158;2023-04-01T04:26:31;98352.19;;;9.98;69.82
34177;BME280;20450;49.074;9.158;2023-04-01T04:29:07;98343.25;;;10.10;69.36
34177;BME280;20450;49.074;9.158;2023-04-01T04:31:34;98348.19;;;10.13;69.18
34177;BME280;20450;49.074;9.158;2023-04-01T04:34:01;98350.53;;;10.09;69.75
34177;BME280;20450;49.074;9.158;2023-04-01T04:36:33;98347.53;;;10.22;69.35
34177;BME280;20450;49.074;9.158;2023-04-01T04:39:00;98359.22;;;10.11;70.10
34177;BME280;20450;49.074;9.158;2023-04-01T04:41:28;98350.31;;;9.99;70.04
34177;BME280;20450;49.074;9.158;2023-04-01T04:43:56;98351.06;;;9.94;70.66
34177;BME280;20450;49.074;9.158;2023-04-01T04:46:24;98356.25;;;9.84;70.94
34177;BME280;20450;49.074;9.158;2023-04-01T04:49:04;98344.66;;;9.84;71.82
34177;BME280;20450;49.074;9.158;2023-04-01T04:51:31;98349.38;;;9.77;72.18
34177;BME280;20450;49.074;9.158;2023-04-01T04:54:00;98348.22;;;9.73;72.03
34177;BME280;20450;49.074;9.158;2023-04-01T04:56:41;98348.91;;;9.80;71.71
34177;BME280;20450;49.074;9.158;2023-04-01T04:59:12;98347.75;;;9.76;72.17
34177;BME280;20450;49.074;9.158;2023-04-01T05:01:49;98349.03;;;9.73;72.56
34177;BME280;20450;49.074;9.158;2023-04-01T05:04:16;98346.28;;;9.85;71.70
34177;BME280;20450;49.074;9.158;2023-04-01T05:06:47;98353.31;;;9.86;71.58
34177;BME280;20450;49.074;9.158;2023-04-01T05:09:17;98339.25;;;9.84;71.22
34177;BME280;20450;49.074;9.158;2023-04-01T05:11:45;98335.22;;;9.98;69.45
34177;BME280;20450;49.074;9.158;2023-04-01T05:14:13;98350.28;;;10.11;69.05
34177;BME280;20450;49.074;9.158;2023-04-01T05:16:44;98340.59;;;10.26;67.95
34177;BME280;20450;49.074;9.158;2023-04-01T05:19:13;98333.72;;;10.35;67.17
34177;BME280;20450;49.074;9.158;2023-04-01T05:21:40;98340.16;;;10.34;68.23
34177;BME280;20450;49.074;9.158;2023-04-01T05:24:08;98323.97;;;10.34;67.48
34177;BME280;20450;49.074;9.158;2023-04-01T05:26:37;98321.38;;;10.39;67.28
34177;BME280;20450;49.074;9.158;2023-04-01T05:29:05;98319.88;;;10.48;66.40
34177;BME280;20450;49.074;9.158;2023-04-01T05:31:32;98318.50;;;10.62;65.46
34177;BME280;20450;49.074;9.158;2023-04-01T05:34:01;98328.22;;;10.63;65.31
34177;BME280;20450;49.074;9.158;2023-04-01T05:36:28;98325.44;;;10.58;65.36
34177;BME280;20450;49.074;9.158;2023-04-01T05:38:56;98323.06;;;10.62;66.21
34177;BME280;20450;49.074;9.158;2023-04-01T05:41:25;98312.19;;;10.57;65.64
34177;BME280;20450;49.074;9.158;2023-04-01T05:43:54;98307.28;;;10.54;65.97
34177;BME280;20450;49.074;9.158;2023-04-01T05:46:39;98312.22;;;10.24;68.77
34177;BME280;20450;49.074;9.158;2023-04-01T05:49:25;98319.59;;;10.00;70.69
34177;BME280;20450;49.074;9.158;2023-04-01T05:51:54;98310.25;;;9.91;70.97
34177;BME280;20450;49.074;9.158;2023-04-01T05:54:22;98318.19;;;9.97;70.62
34177;BME280;20450;49.074;9.158;2023-04-01T05:56:49;98324.41;;;9.98;70.44
34177;BME280;20450;49.074;9.158;2023-04-01T05:59:20;98324.22;;;9.88;71.74
34177;BME280;20450;49.074;9.158;2023-04-01T06:01:47;98320.97;;;9.86;71.50
34177;BME280;20450;49.074;9.158;2023-04-01T06:04:15;98322.47;;;9.82;72.33
34177;BME280;20450;49.074;9.158;2023-04-01T06:06:44;98311.94;;;9.80;71.76
34177;BME280;20450;49.074;9.158;2023-04-01T06:09:15;98324.94;;;9.83;72.15
34177;BME280;20450;49.074;9.158;2023-04-01T06:11:57;98316.38;;;9.86;71.56
34177;BME280;20450;49.074;9.158;2023-04-01T06:15:01;98322.94;;;9.90;71.95
34177;BME280;20450;49.074;9.158;2023-04-01T06:18:01;98323.50;;;9.92;71.42
34177;BME280;20450;49.074;9.158;2023-04-01T06:20:45;98329.81;;;9.98;70.94
34177;BME280;20450;49.074;9.158;2023-04-01T06:23:31;98318.53;;;10.01;71.09
34177;BME280;20450;49.074;9.158;2023-04-01T06:26:23;98334.44;;;10.14;70.79
34177;BME280;20450;49.074;9.158;2023-04-01T06:35:43;98329.31;;;10.46;68.44
34177;BME280;20450;49.074;9.158;2023-04-01T06:38:30;98326.19;;;10.37;68.06
34177;BME280;20450;49.074;9.158;2023-04-01T06:41:26;98318.31;;;10.36;69.02
34177;BME280;20450;49.074;9.158;2023-04-01T06:44:14;98323.47;;;10.37;69.45
34177;BME280;20450;49.074;9.158;2023-04-01T06:47:21;98333.06;;;10.45;69.11
34177;BME280;20450;49.074;9.158;2023-04-01T06:50:26;98325.44;;;10.58;68.91
34177;BME280;20450;49.074;9.158;2023-04-01T06:53:26;98328.88;;;10.70;69.46
34177;BME280;20450;49.074;9.158;2023-04-01T06:56:27;98325.38;;;10.53;68.71
34177;BME280;20450;49.074;9.158;2023-04-01T06:59:20;98327.84;;;10.38;70.33
34177;BME280;20450;49.074;9.158;2023-04-01T07:01:54;98328.47;;;10.45;69.92
34177;BME280;20450;49.074;9.158;2023-04-01T07:04:28;98337.97;;;10.64;68.42
34177;BME280;20450;49.074;9.158;2023-04-01T07:07:02;98328.72;;;10.77;69.35
34177;BME280;20450;49.074;9.158;2023-04-01T07:09:48;98334.03;;;10.72;68.61
34177;BME280;20450;49.074;9.158;2023-04-01T07:12:53;98334.09;;;10.77;69.70
34177;BME280;20450;49.074;9.158;2023-04-01T07:15:43;98322.56;;;10.81;67.68
34177;BME280;20450;49.074;9.158;2023-04-01T07:18:21;98317.97;;;10.82;68.13
34177;BME280;20450;49.074;9.158;2023-04-01T07:20:53;98321.66;;;10.76;68.55
34177;BME280;20450;49.074;9.158;2023-04-01T07:23:28;98325.91;;;10.72;68.44
34177;BME280;20450;49.074;9.158;2023-04-01T07:26:15;98321.91;;;10.74;68.88
34177;BME280;20450;49.074;9.158;2023-04-01T07:29:08;98323.19;;;10.88;68.79
34177;BME280;20450;49.074;9.158;2023-04-01T07:32:03;98330.31;;;10.94;69.32
34177;BME280;20450;49.074;9.158;2023-04-01T07:34:53;98329.22;;;10.95;67.79
34177;BME280;20450;49.074;9.158;2023-04-01T07:37:31;98331.53;;;10.87;69.04
34177;BME280;20450;49.074;9.158;2023-04-01T07:40:22;98344.94;;;10.98;68.62
34177;BME280;20450;49.074;9.158;2023-04-01T07:43:10;98332.75;;;10.96;68.80
34177;BME280;20450;49.074;9.158;2023-04-01T07:46:03;98336.03;;;10.98;68.10
34177;BME280;20450;49.074;9.158;2023-04-01T07:48:46;98335.31;;;10.86;67.90
34177;BME280;20450;49.074;9.158;2023-04-01T07:51:27;98337.28;;;10.90;68.62
34177;BME280;20450;49.074;9.158;2023-04-01T07:54:03;98334.22;;;11.03;67.56
34177;BME280;20450;49.074;9.158;2023-04-01T07:56:43;98342.50;;;10.97;67.78
34177;BME280;20450;49.074;9.158;2023-04-01T07:59:33;98330.31;;;10.94;67.40
34177;BME280;20450;49.074;9.158;2023-04-01T08:02:32;98346.72;;;11.09;67.02
34177;BME280;20450;49.074;9.158;2023-04-01T08:05:28;98341.81;;;11.06;67.84
34177;BME280;20450;49.074;9.158;2023-04-01T08:08:08;98341.41;;;11.14;67.44
34177;BME280;20450;49.074;9.158;2023-04-01T08:11:11;98357.91;;;11.18;66.73
34177;BME280;20450;49.074;9.158;2023-04-01T08:14:16;98363.72;;;11.26;67.41
34177;BME280;20450;49.074;9.158;2023-04-01T08:17:02;98348.94;;;11.12;68.25
34177;BME280;20450;49.074;9.158;2023-04-01T08:19:59;98357.53;;;11.09;68.67
34177;BME280;20450;49.074;9.158;2023-04-01T08:22:42;98361.13;;;11.15;70.16
34177;BME280;20450;49.074;9.158;2023-04-01T08:25:29;98370.44;;;11.24;69.25
34177;BME280;20450;49.074;9.158;2023-04-01T08:28:03;98378.53;;;11.24;70.17
34177;BME280;20450;49.074;9.158;2023-04-01T08:30:47;98378.88;;;11.27;70.29
34177;BME280;20450;49.074;9.158;2023-04-01T08:33:23;98381.00;;;11.25;71.49
34177;BME280;20450;49.074;9.158;2023-04-01T08:36:03;98369.94;;;11.05;72.66
34177;BME280;20450;49.074;9.158;2023-04-01T08:38:40;98367.63;;;10.97;72.11
34177;BME280;20450;49.074;9.158;2023-04-01T08:41:34;98362.09;;;10.87;72.35
34177;BME280;20450;49.074;9.158;2023-04-01T08:48:08;98361.75;;;10.84;72.48
34177;BME280;20450;49.074;9.158;2023-04-01T08:51:19;98363.72;;;10.55;73.45
34177;BME280;20450;49.074;9.158;2023-04-01T08:54:33;98365.94;;;10.42;74.71
34177;BME280;20450;49.074;9.158;2023-04-01T08:57:41;98365.03;;;10.36;75.67
34177;BME280;20450;49.074;9.158;2023-04-01T09:00:46;98365.63;;;10.38;75.76
34177;BME280;20450;49.074;9.158;2023-04-01T09:03:56;98372.16;;;10.26;75.56
34177;BME280;20450;49.074;9.158;2023-04-01T09:06:50;98367.25;;;10.39;76.72
34177;BME280;20450;49.074;9.158;2023-04-01T09:13:45;98358.09;;;10.57;74.47
34177;BME280;20450;49.074;9.158;2023-04-01T09:17:13;98364.31;;;10.57;74.03
34177;BME280;20450;49.074;9.158;2023-04-01T09:20:09;98356.75;;;10.76;72.19
34177;BME280;20450;49.074;9.158;2023-04-01T09:23:08;98355.69;;;10.93;72.46
34177;BME280;20450;49.074;9.158;2023-04-01T09:26:04;98366.41;;;11.05;71.42
34177;BME280;20450;49.074;9.158;2023-04-01T09:28:50;98354.47;;;11.01;71.27
34177;BME280;20450;49.074;9.158;2023-04-01T09:31:42;98357.28;;;11.11;70.97
34177;BME280;20450;49.074;9.158;2023-04-01T09:34:54;98354.47;;;11.01;70.15
34177;BME280;20450;49.074;9.158;2023-04-01T09:37:53;98359.81;;;11.17;69.44
34177;BME280;20450;49.074;9.158;2023-04-01T09:40:37;98365.41;;;11.32;69.67
34177;BME280;20450;49.074;9.158;2023-04-01T09:43:25;98361.09;;;11.31;69.41
34177;BME280;20450;49.074;9.158;2023-04-01T09:46:15;98368.88;;;11.49;68.88
34177;BME280;20450;49.074;9.158;2023-04-01T09:49:08;98362.03;;;11.42;68.78
34177;BME280;20450;49.074;9.158;2023-04-01T09:51:57;98354.16;;;11.40;68.09
34177;BME280;20450;49.074;9.158;2023-04-01T10:05:19;98369.91;;;11.86;68.06
34177;BME280;20450;49.074;9.158;2023-04-01T10:08:39;98380.41;;;11.83;66.87
34177;BME280;20450;49.074;9.158;2023-04-01T10:12:02;98379.13;;;11.90;67.21
34177;BME280;20450;49.074;9.158;2023-04-01T10:18:31;98369.78;;;11.76;66.88
34177;BME280;20450;49.074;9.158;2023-04-01T10:21:28;98383.34;;;11.81;67.56
34177;BME280;20450;49.074;9.158;2023-04-01T10:24:33;98367.78;;;11.67;68.65
34177;BME280;20450;49.074;9.158;2023-04-01T10:27:55;98384.25;;;11.65;68.72
34177;BME280;20450;49.074;9.158;2023-04-01T10:34:49;98380.53;;;11.71;68.62
34177;BME280;20450;49.074;9.158;2023-04-01T10:37:47;98384.03;;;11.50;68.81
34177;BME280;20450;49.074;9.158;2023-04-01T10:48:50;98394.44;;;11.58;69.83
34177;BME280;20450;49.074;9.158;2023-04-01T10:51:58;98399.44;;;11.66;69.24
34177;BME280;20450;49.074;9.158;2023-04-01T10:55:22;98391.56;;;11.65;69.56
34177;BME280;20450;49.074;9.158;2023-04-01T10:59:02;98395.00;;;11.60;68.96
34177;BME280;20450;49.074;9.158;2023-04-01T11:07:07;98376.47;;;11.69;69.47
34177;BME280;20450;49.074;9.158;2023-04-01T11:14:04;98382.69;;;11.69;70.83
34177;BME280;20450;49.074;9.158;2023-04-01T11:24:53;98395.94;;;11.71;71.11
34177;BME280;20450;49.074;9.158;2023-04-01T11:28:02;98392.31;;;11.82;70.47
34177;BME280;20450;49.074;9.158;2023-04-01T11:31:09;98398.84;;;11.86;69.52
34177;BME280;20450;49.074;9.158;2023-04-01T11:33:53;98399.47;;;11.93;69.82
34177;BME280;20450;49.074;9.158;2023-04-01T11:36:37;98403.56;;;11.96;69.81
34177;BME280;20450;49.074;9.158;2023-04-01T11:39:24;98400.19;;;12.10;69.79
34177;BME280;20450;49.074;9.158;2023-04-01T11:42:14;98400.59;;;12.24;69.42
34177;BME280;20450;49.074;9.158;2023-04-01T11:45:19;98401.72;;;12.28;69.89
34177;BME280;20450;49.074;9.158;2023-04-01T11:48:19;98399.94;;;12.38;68.91
34177;BME280;20450;49.074;9.158;2023-04-01T11:51:28;98404.22;;;12.34;67.11
34177;BME280;20450;49.074;9.158;2023-04-01T11:54:24;98410.31;;;12.20;67.32
34177;BME280;20450;49.074;9.158;2023-04-01T11:57:17;98408.66;;;12.19;67.37
34177;BME280;20450;49.074;9.158;2023-04-01T12:00:19;98422.38;;;12.34;68.10
34177;BME280;20450;49.074;9.158;2023-04-01T12:03:11;98429.22;;;12.15;68.08
34177;BME280;20450;49.074;9.158;2023-04-01T12:05:58;98415.25;;;12.28;67.90
34177;BME280;20450;49.074;9.158;2023-04-01T12:08:42;98425.41;;;12.16;67.81
34177;BME280;20450;49.074;9.158;2023-04-01T12:11:25;98427.06;;;12.17;68.85
34177;BME280;20450;49.074;9.158;2023-04-01T12:14:05;98424.38;;;12.17;67.62
34177;BME280;20450;49.074;9.158;2023-04-01T12:16:46;98425.97;;;11.91;67.96
34177;BME280;20450;49.074;9.158;2023-04-01T12:19:31;98431.44;;;11.96;68.40
34177;BME280;20450;49.074;9.158;2023-04-01T12:22:23;98436.59;;;11.98;68.42
34177;BME280;20450;49.074;9.158;2023-04-01T12:25:16;98430.72;;;12.06;69.96
34177;BME280;20450;49.074;9.158;2023-04-01T12:28:11;98428.28;;;12.04;70.10
34177;BME280;20450;49.074;9.158;2023-04-01T12:30:53;98437.03;;;12.11;70.19
34177;BME280;20450;49.074;9.158;2023-04-01T12:33:45;98436.47;;;12.09;69.38
34177;BME280;20450;49.074;9.158;2023-04-01T12:36:48;98447.63;;;12.13;69.84
34177;BME280;20450;49.074;9.158;2023-04-01T12:39:43;98452.16;;;11.85;70.75
34177;BME280;20450;49.074;9.158;2023-04-01T12:42:44;98449.00;;;11.93;70.80
34177;BME280;20450;49.074;9.158;2023-04-01T12:45:30;98446.25;;;11.88;70.84
34177;BME280;20450;49.074;9.158;2023-04-01T12:48:12;98447.88;;;11.89;70.47
34177;BME280;20450;49.074;9.158;2023-04-01T12:51:21;98446.03;;;11.95;70.20
34177;BME280;20450;49.074;9.158;2023-04-01T12:54:18;98448.88;;;11.83;71.80
34177;BME280;20450;49.074;9.158;2023-04-01T12:57:26;98455.16;;;11.89;70.55
34177;BME280;20450;49.074;9.158;2023-04-01T13:00:25;98451.69;;;11.93;69.82
34177;BME280;20450;49.074;9.158;2023-04-01T13:03:19;98447.03;;;12.11;71.07
34177;BME280;20450;49.074;9.158;2023-04-01T13:06:20;98448.97;;;12.15;70.15
34177;BME280;20450;49.074;9.158;2023-04-01T13:09:09;98462.00;;;12.18;69.64
34177;BME280;20450;49.074;9.158;2023-04-01T13:12:01;98449.03;;;12.20;68.97
34177;BME280;20450;49.074;9.158;2023-04-01T13:15:12;98452.06;;;12.24;68.98
34177;BME280;20450;49.074;9.158;2023-04-01T13:17:52;98464.81;;;12.28;68.44
34177;BME280;20450;49.074;9.158;2023-04-01T13:20:39;98465.75;;;12.39;68.78
34177;BME280;20450;49.074;9.158;2023-04-01T13:23:23;98475.56;;;12.45;68.41
34177;BME280;20450;49.074;9.158;2023-04-01T13:26:07;98452.22;;;12.39;68.51
34177;BME280;20450;49.074;9.158;2023-04-01T13:28:52;98468.38;;;12.29;69.29
34177;BME280;20450;49.074;9.158;2023-04-01T13:31:38;98462.31;;;12.22;69.79
34177;BME280;20450;49.074;9.158;2023-04-01T13:34:25;98484.34;;;12.09;68.98
34177;BME280;20450;49.074;9.158;2023-04-01T13:37:15;98474.63;;;12.08;69.24
34177;BME280;20450;49.074;9.158;2023-04-01T13:40:02;98480.63;;;12.15;69.52
34177;BME280;20450;49.074;9.158;2023-04-01T13:42:50;98481.06;;;12.50;69.12
34177;BME280;20450;49.074;9.158;2023-04-01T13:45:26;98465.75;;;12.65;67.17
34177;BME280;20450;49.074;9.158;2023-04-01T13:51:56;98490.22;;;12.75;66.66
34177;BME280;20450;49.074;9.158;2023-04-01T13:54:56;98496.38;;;12.66;66.48
34177;BME280;20450;49.074;9.158;2023-04-01T13:57:47;98500.03;;;12.55;66.48
34177;BME280;20450;49.074;9.158;2023-04-01T14:00:42;98491.47;;;12.36;66.67
34177;BME280;20450;49.074;9.158;2023-04-01T14:03:44;98502.84;;;12.38;68.10
34177;BME280;20450;49.074;9.158;2023-04-01T14:06:31;98494.78;;;12.22;67.99
34177;BME280;20450;49.074;9.158;2023-04-01T14:09:32;98499.09;;;12.18;68.72
34177;BME280;20450;49.074;9.158;2023-04-01T14:12:19;98498.13;;;12.07;69.77
34177;BME280;20450;49.074;9.158;2023-04-01T14:15:19;98495.88;;;12.21;69.78
34177;BME280;20450;49.074;9.158;2023-04-01T14:18:07;98503.81;;;12.27;69.37
34177;BME280;20450;49.074;9.158;2023-04-01T14:20:51;98492.72;;;12.29;68.88
34177;BME280;20450;49.074;9.158;2023-04-01T14:24:06;98506.69;;;12.42;67.78
34177;BME280;20450;49.074;9.158;2023-04-01T14:27:00;98499.13;;;12.44;66.75
34177;BME280;20450;49.074;9.158;2023-04-01T14:29:49;98501.03;;;12.44;67.07
34177;BME280;20450;49.074;9.158;2023-04-01T14:32:37;98501.56;;;12.46;67.43
34177;BME280;20450;49.074;9.158;2023-04-01T14:35:27;98514.50;;;12.39;68.06
34177;BME280;20450;49.074;9.158;2023-04-01T14:38:24;98509.00;;;12.34;67.01
34177;BME280;20450;49.074;9.158;2023-04-01T14:40:56;98506.69;;;12.42;67.98
34177;BME280;20450;49.074;9.158;2023-04-01T14:43:48;98515.69;;;12.48;67.09
34177;BME280;20450;49.074;9.158;2023-04-01T14:47:07;98518.72;;;12.51;67.61
34177;BME280;20450;49.074;9.158;2023-04-01T14:49:46;98515.75;;;12.31;67.91
34177;BME280;20450;49.074;9.158;2023-04-01T14:52:24;98519.97;;;12.44;67.54
34177;BME280;20450;49.074;9.158;2023-04-01T14:54:56;98512.88;;;12.38;67.41
34177;BME280;20450;49.074;9.158;2023-04-01T14:57:27;98515.44;;;12.28;67.25
34177;BME280;20450;49.074;9.158;2023-04-01T15:04:17;98510.66;;;12.35;67.41
34177;BME280;20450;49.074;9.158;2023-04-01T15:10:37;98527.44;;;12.32;67.92
34177;BME280;20450;49.074;9.158;2023-04-01T15:13:29;98526.03;;;12.29;68.09
34177;BME280;20450;49.074;9.158;2023-04-01T15:16:25;98526.16;;;12.39;68.25
34177;BME280;20450;49.074;9.158;2023-04-01T15:19:07;98526.97;;;12.40;67.83
34177;BME280;20450;49.074;9.158;2023-04-01T15:21:50;98516.88;;;12.35;68.20
34177;BME280;20450;49.074;9.158;2023-04-01T15:24:45;98522.50;;;12.29;67.64
34177;BME280;20450;49.074;9.158;2023-04-01T15:27:28;98534.75;;;12.10;68.42
34177;BME280;20450;49.074;9.158;2023-04-01T15:30:32;98526.78;;;12.25;68.58
34177;BME280;20450;49.074;9.158;2023-04-01T15:33:16;98533.84;;;12.26;67.80
34177;BME280;20450;49.074;9.158;2023-04-01T15:36:01;98545.19;;;12.23;68.26